Aeroporto :
LOGIN :

Iscrizione | Disclaimer

   EN    FR    IT 

 










Sommario :    VFR   VFR Marginale   IFR   IFR Intensivo   IFR Molto Intensivo
Visibilità : 
Base nubi : 
>= 8 km
>= 3000ft
5 / 8 km
1000 / 3000 ft
1500m / 5 km
500 / 1000 ft
800 / 1500m
200 / 500 ft
< 800m
< 200 ft
Simboli :   Temporali  Nebbia  Neve Forte  Precipitazioni Forti  Vento > 20 kt
SIGMETs :   Varie  Temporali  Ghiacco  Turbolenza  Onda orograficha  Ceneri Vulcaniche







- Altitudine del aeroporto : 913 ft
- Carte del aeroporto


LFSX - Luxeuil

ULTIMO METAR :
  • 211900Z AUTO 28001KT CAVOK 25/19 Q1022

METARs OBSOLETI :
  • 211830Z AUTO 14004KT CAVOK 26/19 Q1021
  • 211800Z AUTO 18004KT 140V200 CAVOK 28/15 Q1021
  • 211730Z AUTO 20003KT 180V240 CAVOK 29/15 Q1021
  • 211700Z AUTO 21004KT 150V300 CAVOK 29/14 Q1021
  • 211630Z AUTO VRB03KT CAVOK 29/15 Q1021
  • 211600Z AUTO VRB04KT CAVOK 29/14 Q1021

TAF TAF LFSX
Valido dal 21 a 15 ore il 22 a 15 ore UTC


211400Z 2115/2215 VRB03KT CAVOK
Nessun NOTAM noto per questo aeroporto.



MetMap, La meteo Aeronautica in un colpo d'occhio ! - Copyright ORBIFLY Dicembre 2007 - Disclaimer

ORBIFLY MET'MAP TEAM :

Programmazione e sviluppo : Alexandra Zaïnal
Concezione e sviluppo : Baudouin d'Aumeries
Co-Programmazione e sviluppo : Marc-Olivier Méhu
Supporto tecnico e logistico : Manuel Goepfert
Aiuto per la traduzione : Arnaldo La Scala

Contatto : metmap@orbifly.com




FONTI E CREDITI :

   NOAA